createdAt,value
2022-09-24T00:01:16.130Z,13.65
2022-09-24T00:03:47.939Z,13.73
2022-09-24T00:06:14.691Z,15.23
2022-09-24T00:08:41.889Z,15.30
2022-09-24T00:11:11.962Z,11.90
2022-09-24T00:13:40.683Z,13.75
2022-09-24T00:16:09.841Z,12.52
2022-09-24T00:21:12.057Z,10.30
2022-09-24T00:23:38.664Z,11.50
2022-09-24T00:26:24.091Z,11.05
2022-09-24T00:28:52.637Z,11.85
2022-09-24T00:31:19.355Z,9.88
2022-09-24T00:33:46.155Z,11.57
2022-09-24T00:36:14.921Z,11.02
2022-09-24T00:38:41.556Z,17.77
2022-09-24T00:41:08.683Z,11.27
2022-09-24T00:43:37.698Z,11.05
2022-09-24T00:46:14.798Z,12.13
2022-09-24T00:48:42.417Z,11.63
2022-09-24T00:51:10.742Z,11.80
2022-09-24T00:53:37.523Z,9.85
2022-09-24T00:56:05.871Z,12.38
2022-09-24T00:58:33.027Z,9.10
2022-09-24T01:01:09.107Z,10.25
2022-09-24T01:03:40.987Z,10.43
2022-09-24T01:06:09.116Z,10.63
2022-09-24T01:08:36.047Z,8.55
2022-09-24T01:11:13.791Z,6.55
2022-09-24T01:14:03.674Z,6.97
2022-09-24T01:16:42.822Z,7.70
2022-09-24T01:19:40.403Z,9.75
2022-09-24T01:22:20.435Z,12.15
2022-09-24T01:24:59.221Z,8.85
2022-09-24T01:27:42.436Z,10.48
2022-09-24T01:30:12.788Z,8.43
2022-09-24T01:32:42.010Z,7.93
2022-09-24T01:37:44.139Z,7.90
2022-09-24T01:40:12.139Z,8.38
2022-09-24T01:42:40.680Z,8.73
2022-09-24T01:45:09.213Z,9.00
2022-09-24T01:47:40.184Z,9.15
2022-09-24T01:50:08.991Z,6.80
2022-09-24T01:52:41.517Z,9.65
2022-09-24T01:55:13.135Z,7.07
2022-09-24T01:57:45.003Z,8.63
2022-09-24T02:00:14.390Z,8.85
2022-09-24T02:02:46.501Z,8.45
2022-09-24T02:05:19.308Z,8.65
2022-09-24T02:07:51.814Z,9.27
2022-09-24T02:10:20.353Z,9.18
2022-09-24T02:12:52.646Z,7.30
2022-09-24T02:15:22.969Z,12.20
2022-09-24T02:17:58.143Z,10.68
2022-09-24T02:20:28.026Z,10.25
2022-09-24T02:22:57.338Z,11.18
2022-09-24T02:27:54.728Z,10.95
2022-09-24T02:30:21.520Z,9.52
2022-09-24T02:32:53.576Z,8.07
2022-09-24T02:35:20.900Z,8.13
2022-09-24T02:37:48.069Z,9.15
2022-09-24T02:40:15.426Z,7.57
2022-09-24T02:42:43.473Z,5.25
2022-09-24T02:45:11.820Z,5.55
2022-09-24T02:47:38.647Z,6.35
2022-09-24T02:50:07.862Z,7.47
2022-09-24T02:52:34.563Z,7.55
2022-09-24T02:55:01.516Z,10.05
2022-09-24T02:57:28.602Z,7.00
2022-09-24T02:59:55.274Z,6.00
2022-09-24T03:02:22.475Z,9.80
2022-09-24T03:04:49.288Z,8.25
2022-09-24T03:07:17.523Z,8.60
2022-09-24T03:09:44.135Z,6.93
2022-09-24T03:12:10.848Z,6.40
2022-09-24T03:14:37.513Z,8.27
2022-09-24T03:17:04.365Z,8.10
2022-09-24T03:19:31.192Z,7.25
2022-09-24T03:21:57.842Z,7.65
2022-09-24T03:24:25.902Z,6.68
2022-09-24T03:26:52.633Z,5.03
2022-09-24T03:29:39.317Z,5.85
2022-09-24T03:32:06.140Z,6.82
2022-09-24T03:34:33.121Z,6.22
2022-09-24T03:36:59.815Z,7.05
2022-09-24T03:39:27.872Z,7.45
2022-09-24T03:41:54.488Z,7.22
2022-09-24T03:44:21.200Z,5.65
2022-09-24T03:46:48.209Z,9.95
2022-09-24T03:49:15.084Z,4.68
2022-09-24T03:51:41.757Z,10.23
2022-09-24T03:54:08.444Z,7.53
2022-09-24T03:56:36.476Z,5.80
2022-09-24T03:59:03.159Z,6.50
2022-09-24T04:01:33.088Z,7.07
2022-09-24T04:04:00.382Z,7.40
2022-09-24T04:06:27.205Z,6.70
2022-09-24T04:08:54.431Z,6.93
2022-09-24T04:11:21.446Z,6.60
2022-09-24T04:13:49.851Z,6.53
2022-09-24T04:16:16.631Z,6.07
2022-09-24T04:18:43.567Z,23.75
2022-09-24T04:21:10.304Z,7.35
2022-09-24T04:23:36.999Z,5.30
2022-09-24T04:26:03.786Z,6.65
2022-09-24T04:28:31.404Z,8.15
2022-09-24T04:30:59.587Z,5.80
2022-09-24T04:33:26.784Z,6.32
2022-09-24T04:35:53.510Z,6.00
2022-09-24T04:38:21.340Z,7.93
2022-09-24T04:40:48.499Z,7.95
2022-09-24T04:43:15.340Z,9.80
2022-09-24T04:45:44.120Z,5.63
2022-09-24T04:48:12.590Z,6.53
2022-09-24T04:50:43.419Z,6.68
2022-09-24T04:53:12.019Z,9.95
2022-09-24T04:55:39.680Z,5.45
2022-09-24T04:58:06.375Z,7.40
2022-09-24T05:00:33.443Z,6.03
2022-09-24T05:03:03.659Z,5.75
2022-09-24T05:05:32.375Z,7.80
2022-09-24T05:07:59.679Z,5.95
2022-09-24T05:10:26.398Z,9.02
2022-09-24T05:12:53.136Z,9.77
2022-09-24T05:15:20.137Z,10.00
2022-09-24T05:17:47.374Z,9.80
2022-09-24T05:20:16.156Z,10.02
2022-09-24T05:22:45.104Z,10.10
2022-09-24T05:25:12.801Z,9.50
2022-09-24T05:27:44.554Z,10.70
2022-09-24T05:30:12.461Z,9.93
2022-09-24T05:32:39.238Z,8.98
2022-09-24T05:35:08.489Z,5.15
2022-09-24T05:40:24.561Z,9.20
2022-09-24T05:42:51.965Z,10.05
2022-09-24T05:45:18.840Z,6.60
2022-09-24T05:47:45.762Z,9.18
2022-09-24T05:50:12.883Z,9.57
2022-09-24T05:52:39.827Z,12.25
2022-09-24T05:55:10.306Z,10.80
2022-09-24T05:57:37.036Z,7.68
2022-09-24T06:00:05.309Z,9.60
2022-09-24T06:02:38.920Z,6.55
2022-09-24T06:05:06.949Z,9.82
2022-09-24T06:07:33.723Z,6.78
2022-09-24T06:10:00.881Z,13.52
2022-09-24T06:12:29.006Z,6.05
2022-09-24T06:14:55.627Z,9.45
2022-09-24T06:17:24.197Z,9.48
2022-09-24T06:19:50.886Z,9.57
2022-09-24T06:22:17.550Z,9.98
2022-09-24T06:24:44.287Z,5.63
2022-09-24T06:27:11.427Z,6.25
2022-09-24T06:29:39.514Z,7.57
2022-09-24T06:32:06.171Z,7.57
2022-09-24T06:34:32.801Z,9.27
2022-09-24T06:36:59.421Z,11.07
2022-09-24T06:39:27.738Z,6.55
2022-09-24T06:41:54.551Z,5.30
2022-09-24T06:44:22.246Z,7.78
2022-09-24T06:46:51.386Z,6.55
2022-09-24T06:51:44.714Z,9.05
2022-09-24T06:54:11.449Z,10.07
2022-09-24T06:56:38.070Z,10.02
2022-09-24T06:59:04.777Z,8.27
2022-09-24T07:01:31.582Z,12.18
2022-09-24T07:04:00.165Z,13.38
2022-09-24T07:06:46.791Z,15.77
2022-09-24T07:09:13.469Z,13.75
2022-09-24T07:11:40.323Z,13.55
2022-09-24T07:14:07.002Z,15.88
2022-09-24T07:16:33.964Z,15.75
2022-09-24T07:19:02.158Z,17.77
2022-09-24T07:21:29.047Z,21.73
2022-09-24T07:23:58.585Z,18.33
2022-09-24T07:26:25.483Z,14.23
2022-09-24T07:28:52.131Z,15.27
2022-09-24T07:31:18.790Z,12.73
2022-09-24T07:33:45.535Z,13.05
2022-09-24T07:36:13.894Z,13.73
2022-09-24T07:38:40.571Z,14.38
2022-09-24T07:41:09.467Z,14.38
2022-09-24T07:43:36.142Z,19.67
2022-09-24T07:46:03.118Z,13.52
2022-09-24T07:48:29.810Z,17.52
2022-09-24T07:50:56.505Z,15.93
2022-09-24T07:53:24.532Z,16.40
2022-09-24T07:55:52.716Z,10.40
2022-09-24T07:58:19.664Z,12.10
2022-09-24T08:00:46.583Z,10.70
2022-09-24T08:03:13.265Z,10.82
2022-09-24T08:05:45.036Z,8.32
2022-09-24T08:08:11.791Z,10.35
2022-09-24T08:10:40.047Z,13.15
2022-09-24T08:13:06.983Z,8.25
2022-09-24T08:15:33.693Z,10.88
2022-09-24T08:18:01.584Z,10.25
2022-09-24T08:20:28.360Z,7.43
2022-09-24T08:22:55.096Z,7.70
2022-09-24T08:25:21.723Z,7.85
2022-09-24T08:27:49.892Z,7.40
2022-09-24T08:30:16.570Z,8.68
2022-09-24T08:32:46.390Z,10.13
2022-09-24T08:35:13.031Z,7.95
2022-09-24T08:37:39.900Z,8.30
2022-09-24T08:40:11.024Z,7.28
2022-09-24T08:42:49.344Z,7.40
2022-09-24T08:45:36.368Z,8.57
2022-09-24T08:48:13.742Z,8.13
2022-09-24T08:50:48.458Z,11.15
2022-09-24T08:53:21.502Z,8.52
2022-09-24T08:55:51.533Z,12.13
2022-09-24T08:58:29.767Z,6.15
2022-09-24T09:01:06.709Z,8.43
2022-09-24T09:03:40.532Z,7.40
2022-09-24T09:06:15.138Z,6.68
2022-09-24T09:09:06.796Z,8.95
2022-09-24T09:11:36.736Z,8.63
2022-09-24T09:14:11.087Z,8.27
2022-09-24T09:16:46.426Z,7.57
2022-09-24T09:19:15.568Z,7.20
2022-09-24T09:21:45.042Z,7.75
2022-09-24T09:24:17.245Z,7.38
2022-09-24T09:26:48.902Z,7.57
2022-09-24T09:29:16.869Z,7.05
2022-09-24T09:31:58.512Z,7.72
2022-09-24T09:34:44.247Z,6.65
2022-09-24T09:37:25.542Z,7.43
2022-09-24T09:40:02.596Z,6.68
2022-09-24T09:42:32.217Z,4.97
2022-09-24T09:45:01.906Z,6.10
2022-09-24T09:47:43.505Z,6.35
2022-09-24T09:50:21.013Z,5.63
2022-09-24T09:52:47.734Z,5.18
2022-09-24T09:55:23.024Z,5.63
2022-09-24T09:57:51.281Z,5.30
2022-09-24T10:00:26.888Z,6.57
2022-09-24T10:02:55.233Z,4.78
2022-09-24T10:05:27.502Z,6.13
2022-09-24T10:07:55.155Z,5.07
2022-09-24T10:10:24.555Z,5.60
2022-09-24T10:12:53.521Z,5.63
2022-09-24T10:15:22.669Z,5.43
2022-09-24T10:17:52.503Z,5.85
2022-09-24T10:20:24.274Z,8.07
2022-09-24T10:22:53.632Z,5.70
2022-09-24T10:25:26.441Z,6.18
2022-09-24T10:27:55.195Z,4.90
2022-09-24T10:30:34.333Z,5.53
2022-09-24T10:33:02.814Z,7.07
2022-09-24T10:35:35.576Z,5.55
2022-09-24T10:38:14.652Z,7.72
2022-09-24T10:40:41.758Z,5.65
2022-09-24T10:43:17.650Z,4.90
2022-09-24T10:46:03.133Z,4.47
2022-09-24T10:48:41.800Z,4.55
2022-09-24T10:51:28.954Z,4.25
2022-09-24T10:54:18.008Z,4.63
2022-09-24T10:56:51.708Z,4.68
2022-09-24T10:59:34.247Z,5.57
2022-09-24T11:02:20.379Z,7.50
2022-09-24T11:04:54.993Z,6.43
2022-09-24T11:07:44.635Z,5.65
2022-09-24T11:10:23.828Z,5.53
2022-09-24T11:13:07.238Z,7.47
2022-09-24T11:15:58.765Z,5.43
2022-09-24T11:18:36.726Z,7.90
2022-09-24T11:21:19.449Z,6.93
2022-09-24T11:24:16.411Z,6.78
2022-09-24T11:26:58.466Z,5.05
2022-09-24T11:30:01.372Z,6.93
2022-09-24T11:32:33.713Z,3.45
2022-09-24T11:35:22.954Z,4.13
2022-09-24T11:37:59.907Z,4.45
2022-09-24T11:40:43.181Z,4.28
2022-09-24T11:43:34.061Z,4.25
2022-09-24T11:46:15.664Z,5.60
2022-09-24T11:49:08.162Z,5.63
2022-09-24T11:51:48.855Z,6.18
2022-09-24T11:54:26.849Z,5.75
2022-09-24T11:57:02.493Z,7.00
2022-09-24T11:59:36.895Z,5.82
2022-09-24T12:02:13.158Z,4.70
2022-09-24T12:04:48.534Z,5.88
2022-09-24T12:07:23.499Z,5.80
2022-09-24T12:09:55.777Z,6.72
2022-09-24T12:12:29.207Z,6.20
2022-09-24T12:15:01.913Z,6.80
2022-09-24T12:17:36.011Z,8.10
2022-09-24T12:20:08.374Z,6.88
2022-09-24T12:22:38.749Z,5.78
2022-09-24T12:25:12.183Z,4.93
2022-09-24T12:27:40.295Z,5.13
2022-09-24T12:30:40.413Z,10.60
2022-09-24T12:33:13.511Z,8.40
2022-09-24T12:35:51.456Z,7.55
2022-09-24T12:38:20.240Z,6.40
2022-09-24T12:41:11.429Z,6.78
2022-09-24T12:43:45.836Z,5.80
2022-09-24T12:46:18.468Z,4.97
2022-09-24T12:48:48.222Z,5.78
2022-09-24T12:51:16.793Z,4.55
2022-09-24T12:53:55.126Z,4.75
2022-09-24T12:56:26.672Z,5.30
2022-09-24T12:58:55.359Z,5.43
2022-09-24T13:01:30.780Z,5.68
2022-09-24T13:04:25.411Z,5.72
2022-09-24T13:06:52.834Z,6.03
2022-09-24T13:09:35.509Z,6.60
2022-09-24T13:12:05.370Z,6.35
2022-09-24T13:14:35.211Z,7.00
2022-09-24T13:17:06.812Z,5.45
2022-09-24T13:19:37.824Z,6.40
2022-09-24T13:22:05.538Z,5.63
2022-09-24T13:24:46.883Z,4.82
2022-09-24T13:27:35.337Z,6.47
2022-09-24T13:30:15.058Z,5.90
2022-09-24T13:32:49.550Z,6.38
2022-09-24T13:35:22.256Z,6.07
2022-09-24T13:37:54.882Z,4.65
2022-09-24T13:40:24.746Z,5.93
2022-09-24T13:42:58.827Z,4.38
2022-09-24T13:45:27.842Z,6.90
2022-09-24T13:47:57.645Z,6.43
2022-09-24T13:50:28.209Z,6.43
2022-09-24T13:52:57.957Z,7.03
2022-09-24T13:55:31.061Z,10.45
2022-09-24T13:57:58.005Z,8.23
2022-09-24T14:00:29.314Z,5.50
2022-09-24T14:03:00.317Z,7.28
2022-09-24T14:05:29.105Z,6.05
2022-09-24T14:07:59.549Z,10.90
2022-09-24T14:10:26.257Z,5.63
2022-09-24T14:13:10.286Z,5.45
2022-09-24T14:15:38.539Z,6.05
2022-09-24T14:18:10.599Z,18.02
2022-09-24T14:20:39.597Z,18.52
2022-09-24T14:23:06.787Z,8.32
2022-09-24T14:25:37.234Z,8.50
2022-09-24T14:28:05.575Z,10.10
2022-09-24T14:30:35.271Z,8.90
2022-09-24T14:33:07.070Z,7.68
2022-09-24T14:35:34.997Z,8.48
2022-09-24T14:38:06.475Z,8.07
2022-09-24T14:40:41.913Z,8.13
2022-09-24T14:43:16.448Z,9.52
2022-09-24T14:45:43.459Z,9.00
2022-09-24T14:48:25.671Z,8.57
2022-09-24T14:50:52.354Z,8.43
2022-09-24T14:53:23.700Z,7.15
2022-09-24T14:55:50.700Z,9.48
2022-09-24T14:58:36.275Z,10.18
2022-09-24T15:01:08.080Z,8.43
2022-09-24T15:03:40.685Z,13.07
2022-09-24T15:06:19.197Z,12.50
2022-09-24T15:08:53.347Z,13.85
2022-09-24T15:11:20.661Z,12.25
2022-09-24T15:13:58.401Z,10.38
2022-09-24T15:16:29.408Z,11.68
2022-09-24T15:19:12.068Z,8.52
2022-09-24T15:21:38.793Z,9.23
2022-09-24T15:24:05.713Z,7.10
2022-09-24T15:26:34.501Z,6.07
2022-09-24T15:29:02.019Z,5.63
2022-09-24T15:31:28.972Z,9.00
2022-09-24T15:33:56.056Z,5.95
2022-09-24T15:36:24.942Z,7.25
2022-09-24T15:38:52.910Z,6.82
2022-09-24T15:41:19.798Z,7.82
2022-09-24T15:43:46.510Z,8.30
2022-09-24T15:46:13.239Z,10.02
2022-09-24T15:48:39.986Z,7.35
2022-09-24T15:51:11.720Z,8.68
2022-09-24T15:53:42.036Z,12.07
2022-09-24T15:56:08.704Z,8.95
2022-09-24T15:58:35.422Z,8.68
2022-09-24T16:01:02.795Z,8.68
2022-09-24T16:03:32.213Z,9.20
2022-09-24T16:05:59.943Z,8.93
2022-09-24T16:08:26.914Z,7.40
2022-09-24T16:10:54.872Z,7.63
2022-09-24T16:13:24.321Z,9.05
2022-09-24T16:15:51.099Z,8.18
2022-09-24T16:18:18.045Z,8.95
2022-09-24T16:20:46.293Z,10.30
2022-09-24T16:23:14.924Z,8.82
2022-09-24T16:25:42.808Z,8.10
2022-09-24T16:28:10.904Z,10.35
2022-09-24T16:30:38.877Z,8.90
2022-09-24T16:33:05.574Z,8.98
2022-09-24T16:35:32.356Z,7.82
2022-09-24T16:37:58.970Z,8.07
2022-09-24T16:40:25.791Z,9.35
2022-09-24T16:42:52.558Z,10.25
2022-09-24T16:45:20.712Z,10.60
2022-09-24T16:47:47.426Z,11.48
2022-09-24T16:50:14.223Z,11.40
2022-09-24T16:52:42.800Z,11.30
2022-09-24T16:55:09.813Z,11.20
2022-09-24T16:57:37.616Z,9.50
2022-09-24T17:00:06.745Z,8.05
2022-09-24T17:02:35.560Z,7.03
2022-09-24T17:05:02.476Z,10.20
2022-09-24T17:07:30.315Z,9.85
2022-09-24T17:10:15.706Z,8.85
2022-09-24T17:12:45.333Z,10.25
2022-09-24T17:15:14.674Z,9.50
2022-09-24T17:17:49.485Z,7.75
2022-09-24T17:20:17.790Z,9.38
2022-09-24T17:22:44.573Z,8.18
2022-09-24T17:25:11.276Z,6.88
2022-09-24T17:27:39.952Z,7.15
2022-09-24T17:30:08.065Z,8.85
2022-09-24T17:32:34.777Z,6.85
2022-09-24T17:35:02.948Z,9.55
2022-09-24T17:37:29.691Z,8.93
2022-09-24T17:39:56.892Z,9.15
2022-09-24T17:42:23.904Z,8.05
2022-09-24T17:44:50.677Z,7.70
2022-09-24T17:47:17.401Z,7.00
2022-09-24T17:49:44.093Z,7.18
2022-09-24T17:52:13.428Z,8.73
2022-09-24T17:54:40.138Z,7.20
2022-09-24T17:57:06.874Z,7.90
2022-09-24T17:59:33.732Z,7.97
2022-09-24T18:02:00.690Z,8.45
2022-09-24T18:04:31.101Z,12.93
2022-09-24T18:06:57.872Z,7.55
2022-09-24T18:09:26.200Z,9.55
2022-09-24T18:11:53.044Z,7.95
2022-09-24T18:14:21.652Z,7.03
2022-09-24T18:16:51.785Z,7.05
2022-09-24T18:19:18.564Z,4.07
2022-09-24T18:21:46.581Z,5.28
2022-09-24T18:24:14.443Z,4.45
2022-09-24T18:26:43.726Z,7.05
2022-09-24T18:29:13.265Z,5.95
2022-09-24T18:31:41.257Z,9.65
2022-09-24T18:34:09.535Z,7.82
2022-09-24T18:36:38.640Z,9.15
2022-09-24T18:41:33.144Z,9.68
2022-09-24T18:44:01.790Z,10.00
2022-09-24T18:46:30.696Z,9.00
2022-09-24T18:48:58.883Z,9.15
2022-09-24T18:51:28.130Z,9.40
2022-09-24T18:53:56.422Z,9.82
2022-09-24T18:56:26.472Z,12.63
2022-09-24T18:58:57.195Z,10.32
2022-09-24T19:01:26.222Z,15.48
2022-09-24T19:03:53.238Z,13.00
2022-09-24T19:06:20.074Z,10.35
2022-09-24T19:08:46.812Z,6.82
2022-09-24T19:11:14.427Z,9.30
2022-09-24T19:13:43.149Z,7.82
2022-09-24T19:16:12.039Z,8.40
2022-09-24T19:18:41.498Z,8.88
2022-09-24T19:21:09.938Z,11.95
2022-09-24T19:23:37.336Z,13.52
2022-09-24T19:26:05.465Z,9.05
2022-09-24T19:28:32.947Z,9.40
2022-09-24T19:30:59.792Z,7.60
2022-09-24T19:33:27.232Z,9.48
2022-09-24T19:35:58.050Z,6.45
2022-09-24T19:38:26.683Z,5.80
2022-09-24T19:40:58.200Z,7.68
2022-09-24T19:43:25.737Z,10.45
2022-09-24T19:45:58.258Z,9.07
2022-09-24T19:48:25.587Z,10.25
2022-09-24T19:50:52.921Z,13.10
2022-09-24T19:53:21.447Z,13.40
2022-09-24T19:55:48.548Z,14.70
2022-09-24T19:58:15.670Z,10.38
2022-09-24T20:00:43.235Z,10.70
2022-09-24T20:03:11.180Z,14.20
2022-09-24T20:05:40.454Z,14.65
2022-09-24T20:08:09.864Z,13.32
2022-09-24T20:10:38.984Z,13.80
2022-09-24T20:15:33.087Z,19.35
2022-09-24T20:17:59.948Z,13.80
2022-09-24T20:20:26.662Z,19.63
2022-09-24T20:22:53.403Z,10.75
2022-09-24T20:25:40.258Z,10.93
2022-09-24T20:28:12.158Z,10.45
2022-09-24T20:30:41.431Z,16.15
2022-09-24T20:33:09.383Z,13.00
2022-09-24T20:35:38.463Z,16.20
2022-09-24T20:38:06.259Z,11.88
2022-09-24T20:40:33.179Z,11.95
2022-09-24T20:42:59.955Z,13.65
2022-09-24T20:45:28.015Z,11.65
2022-09-24T20:47:54.730Z,12.63
2022-09-24T20:50:21.611Z,10.48
2022-09-24T20:52:48.312Z,11.48
2022-09-24T20:55:15.761Z,11.63
2022-09-24T20:57:42.960Z,8.63
2022-09-24T21:00:13.429Z,13.35
2022-09-24T21:02:42.026Z,12.75
2022-09-24T21:05:10.010Z,12.38
2022-09-24T21:07:40.277Z,11.38
2022-09-24T21:10:10.046Z,12.52
2022-09-24T21:12:37.465Z,8.88
2022-09-24T21:15:04.943Z,11.10
2022-09-24T21:17:32.392Z,11.65
2022-09-24T21:20:02.089Z,10.20
2022-09-24T21:22:29.204Z,12.38
2022-09-24T21:24:56.029Z,9.43
2022-09-24T21:27:22.684Z,9.45
2022-09-24T21:29:49.570Z,10.13
2022-09-24T21:32:19.179Z,7.95
2022-09-24T21:34:45.930Z,9.32
2022-09-24T21:37:14.895Z,9.10
2022-09-24T21:39:44.413Z,8.98
2022-09-24T21:42:11.255Z,7.25
2022-09-24T21:44:38.176Z,10.07
2022-09-24T21:47:05.499Z,9.18
2022-09-24T21:49:33.637Z,7.60
2022-09-24T21:52:00.708Z,9.95
2022-09-24T21:54:30.259Z,8.18
2022-09-24T21:56:57.280Z,8.55
2022-09-24T21:59:42.552Z,7.72
2022-09-24T22:02:10.168Z,7.93
2022-09-24T22:04:36.888Z,8.95
2022-09-24T22:07:03.674Z,7.97
2022-09-24T22:09:32.455Z,6.80
2022-09-24T22:12:01.098Z,7.03
2022-09-24T22:14:27.966Z,7.18
2022-09-24T22:16:55.323Z,6.85
2022-09-24T22:19:22.415Z,7.13
2022-09-24T22:21:49.277Z,5.95
2022-09-24T22:24:16.231Z,5.50
2022-09-24T22:26:45.572Z,5.80
2022-09-24T22:29:12.414Z,5.53
2022-09-24T22:31:39.238Z,6.43
2022-09-24T22:34:24.707Z,5.78
2022-09-24T22:36:51.803Z,7.72
2022-09-24T22:39:18.650Z,7.90
2022-09-24T22:41:46.963Z,7.28
2022-09-24T22:44:13.927Z,7.97
2022-09-24T22:46:41.820Z,5.78
2022-09-24T22:49:10.955Z,6.03
2022-09-24T22:51:39.269Z,5.50
2022-09-24T22:54:07.204Z,4.22
2022-09-24T22:56:34.593Z,4.80
2022-09-24T22:59:03.058Z,6.38
2022-09-24T23:01:31.876Z,4.78
2022-09-24T23:03:59.857Z,4.60
2022-09-24T23:06:27.251Z,5.30
2022-09-24T23:08:55.263Z,4.97
2022-09-24T23:11:23.987Z,4.93
2022-09-24T23:13:53.558Z,4.57
2022-09-24T23:16:23.699Z,4.43
2022-09-24T23:18:52.840Z,3.30
2022-09-24T23:21:21.485Z,5.32
2022-09-24T23:23:52.824Z,4.57
2022-09-24T23:26:20.464Z,3.83
2022-09-24T23:28:51.027Z,5.28
2022-09-24T23:31:17.910Z,3.83
2022-09-24T23:33:46.471Z,5.45
2022-09-24T23:36:14.220Z,7.97
2022-09-24T23:38:41.833Z,6.47
2022-09-24T23:41:10.589Z,7.95
2022-09-24T23:43:37.713Z,8.43
2022-09-24T23:46:05.240Z,7.55
2022-09-24T23:48:32.258Z,7.30
2022-09-24T23:51:00.543Z,7.90
2022-09-24T23:53:27.513Z,11.77
2022-09-24T23:55:55.334Z,12.50
2022-09-24T23:58:24.395Z,14.50
